PHENX84 YGLB-YOPS

Flight info

Callsign PHENX84
Flight time N/A
Altitude 3000
Route DCT
Aircraft C172/L-SFG/C

Departure

Time 2026-05-04 11:41
Airport Goulburn Airport (YGLB)

Arrival

Time N/A
Airport YOPS
Time Latitude Longitude Altitude Speed Heading
2026-05-04 11:37 -34.80627 149.73292 2109 ft 1 kts 313°
2026-05-04 11:38 -34.80626 149.73291 2109 ft 0 kts 314°
2026-05-04 11:38 -34.80623 149.73287 2109 ft 3 kts 310°
2026-05-04 11:38 -34.80590 149.73247 2108 ft 8 kts 318°
2026-05-04 11:39 -34.80566 149.73211 2110 ft 3 kts 295°
2026-05-04 11:39 -34.80564 149.73205 2110 ft 0 kts 295°
2026-05-04 11:40 -34.81522 149.72030 2298 ft 91 kts 225°
2026-05-04 11:41 -34.82006 149.71565 2516 ft 90 kts 232°
2026-05-04 11:41 -34.82205 149.70857 2583 ft 94 kts 281°
2026-05-04 11:41 -34.81983 149.70109 2674 ft 96 kts 292°
2026-05-04 11:41 -34.81766 149.69349 2798 ft 95 kts 286°
2026-05-04 11:42 -34.81448 149.68670 2851 ft 101 kts 333°
2026-05-04 11:42 -34.80768 149.68694 2900 ft 97 kts 12°
2026-05-04 11:42 -34.80170 149.68977 3001 ft 89 kts 17°
2026-05-04 11:42 -34.79598 149.69360 3024 ft 95 kts 38°
2026-05-04 11:43 -34.79383 149.70137 2993 ft 105 kts 106°
2026-05-04 11:43 -34.79875 149.70513 3052 ft 81 kts 218°
2026-05-04 11:43 -34.80138 149.69968 3066 ft 78 kts 256°
2026-05-04 11:43 -34.80356 149.69367 3101 ft 81 kts 240°
2026-05-04 11:44 -34.80786 149.68874 3018 ft 89 kts 223°
2026-05-04 11:44 -34.81295 149.68478 2970 ft 84 kts 212°
2026-05-04 11:44 -34.81917 149.68357 2852 ft 93 kts 204°
2026-05-04 11:44 -34.81655 149.68111 2738 ft 112 kts 17°
2026-05-04 11:45 -34.80958 149.68449 2921 ft 99 kts 12°
2026-05-04 11:45 -34.80258 149.68776 2853 ft 115 kts 24°
2026-05-04 11:45 -34.79566 149.69308 2792 ft 120 kts 31°
2026-05-04 11:45 -34.78930 149.69902 2900 ft 110 kts 34°
2026-05-04 11:46 -34.78352 149.70431 2968 ft 101 kts 32°
2026-05-04 11:46 -34.77770 149.70874 2998 ft 97 kts 17°
2026-05-04 11:46 -34.77153 149.71120 3059 ft 87 kts 13°
2026-05-04 11:46 -34.76587 149.71331 3012 ft 88 kts
2026-05-04 11:47 -34.76134 149.71824 2938 ft 102 kts 68°
2026-05-04 11:47 -34.76165 149.72676 2736 ft 101 kts 114°
2026-05-04 11:47 -34.76660 149.73144 2660 ft 86 kts 193°
2026-05-04 11:47 -34.76780 149.72651 2578 ft 76 kts 301°
2026-05-04 11:48 -34.76413 149.72179 2509 ft 79 kts 321°
2026-05-04 11:48 -34.75905 149.72214 2582 ft 83 kts 58°
2026-05-04 11:48 -34.76228 149.72703 2504 ft 85 kts 186°
2026-05-04 11:48 -34.76780 149.72843 2532 ft 74 kts 160°
2026-05-04 11:49 -34.77233 149.73140 2501 ft 81 kts 153°
2026-05-04 11:49 -34.77522 149.72975 2393 ft 76 kts 308°
2026-05-04 11:49 -34.77102 149.72672 2432 ft 65 kts 336°
2026-05-04 11:49 -34.76664 149.72575 2414 ft 64 kts 336°
2026-05-04 11:50 -34.76237 149.72335 2341 ft 73 kts 330°
2026-05-04 11:50 -34.75692 149.72265 2329 ft 91 kts 15°
2026-05-04 11:50 -34.75100 149.72635 2310 ft 100 kts 37°
2026-05-04 11:50 -34.74721 149.73371 2344 ft 104 kts 67°
2026-05-04 11:51 -34.74681 149.74252 2475 ft 104 kts 96°
2026-05-04 11:51 -34.74619 149.75107 2623 ft 97 kts 68°
2026-05-04 11:51 -34.74383 149.75892 2698 ft 105 kts 71°
2026-05-04 11:51 -34.74110 149.76701 2776 ft 108 kts 70°
2026-05-04 11:52 -34.73872 149.77593 2789 ft 112 kts 61°
2026-05-04 11:52 -34.73630 149.78519 2812 ft 118 kts 73°
2026-05-04 11:52 -34.73411 149.79500 2830 ft 123 kts 72°
2026-05-04 11:52 -34.73184 149.80497 2827 ft 121 kts 73°
2026-05-04 11:53 -34.72943 149.81495 2827 ft 124 kts 72°
2026-05-04 11:53 -34.72752 149.82521 2821 ft 126 kts 91°
2026-05-04 11:53 -34.73109 149.83486 2820 ft 128 kts 127°
2026-05-04 11:53 -34.73625 149.84374 2817 ft 127 kts 129°
2026-05-04 11:55 -34.74336 149.91367 2806 ft 122 kts 83°
2026-05-04 11:55 -34.74385 149.92369 2748 ft 117 kts 102°
2026-05-04 11:56 -34.74417 149.93321 2696 ft 114 kts 65°
2026-05-04 11:56 -34.74026 149.94165 2581 ft 111 kts 58°
2026-05-04 11:56 -34.73752 149.95003 2566 ft 105 kts 70°
2026-05-04 11:56 -34.73593 149.95833 2626 ft 103 kts 101°
2026-05-04 11:57 -34.73770 149.96711 2649 ft 108 kts 113°
2026-05-04 11:57 -34.73621 149.97492 2680 ft 107 kts 10°
2026-05-04 11:57 -34.73248 149.97140 2683 ft 89 kts 252°
2026-05-04 11:57 -34.73368 149.96499 2444 ft 75 kts 270°
2026-05-04 11:58 -34.73421 149.95919 2345 ft 59 kts 265°
2026-05-04 11:58 -34.73468 149.95542 2331 ft 27 kts 266°
2026-05-04 11:58 -34.73469 149.95429 2331 ft 7 kts 312°
2026-05-04 11:58 -34.73438 149.95410 2329 ft 4 kts
2026-05-04 11:59 -34.73428 149.95410 2329 ft 0 kts 354°